Terminal Aerodrome Forecast
Issued by NWS

Home | Current Version | Previous Version | Text Only | Print | Product List | Glossary On
Versions: 1 2 3 4 5 6 7 8 9 10 11 12 13 14 15 16 17
000
FTUS44 KCRP 221738
TAFALI
TAF
KALI 221738Z 2218/2318 34007KT 6SM BR OVC004
      TEMPO 2218/2221 4SM -DZ BR
     FM222200 35007KT P6SM OVC008
     FM230200 01005KT 5SM BR OVC005
     FM230600 03007KT 3SM -DZ BR OVC003
      TEMPO 2309/2313 1SM -DZ BR OVC002
     FM231500 06006KT 4SM BR OVC006=

USA.gov is the U.S. government's official web portal to all federal, state and local government web resources and services.